Flight Track Log - Related Links

Times and Time Zones

All times are in EDT time to prevent confusion due to time zone crossing. See the SWA1779 flight status page for this flight to view local times or setup timezone preferences in your user account.

Time Position Orientation Groundspeed Altitude Reporting Facility
EDT Latitude Longitude Course Direction KTS MPH feet Rate Location/Type
Sun 08:24:25 PM 35.0217 -106.6861 285° West 193 222 8,000  Level Albuquerque Center
Sun 08:25:13 PM 35.0481 -106.7361 303° West 235 270 9,600 2,597 Climbing Albuquerque Center
Sun 08:25:32 PM 35.0622 -106.7717 296° West 269 310 10,900 3,148 Climbing Albuquerque Center
Sun 08:26:14 PM 35.0931 -106.8025 321° Northwest 270 311 12,800 3,200 Climbing Albuquerque Center
Sun 08:26:32 PM 35.1247 -106.8128 345° North 282 325 14,100 2,903 Climbing Albuquerque Center
Sun 08:27:16 PM 35.1669 -106.8253 346° North 276 318 15,800 2,229 Climbing Albuquerque Center
Sun 08:28:17 PM 35.2689 -106.8344 356° North 311 358 18,000 1,951 Climbing Albuquerque Center
Sun 08:29:19 PM 35.3778 -106.8517 353° North 373 429 19,800 2,195 Climbing Albuquerque Center
Sun 08:30:20 PM 35.4817 -106.8936 342° North 393 452 22,500 2,341 Climbing Albuquerque Center
Sun 08:31:22 PM 35.5847 -106.9500 336° Northwest 401 461 24,600 2,000 Climbing Albuquerque Center
Sun 08:32:23 PM 35.7031 -107.0086 338° Northwest 420 483 26,600 1,951 Climbing Albuquerque Center
Sun 08:33:25 PM 35.8097 -107.0606 338° Northwest 428 493 28,600 2,098 Climbing Albuquerque Center
Sun 08:34:26 PM 35.9128 -107.1139 337° Northwest 425 489 30,900 2,049 Climbing Albuquerque Center
Sun 08:35:28 PM 36.0278 -107.1744 337° Northwest 409 471 32,800 1,561 Climbing Albuquerque Center
Sun 08:36:29 PM 36.1306 -107.2256 338° Northwest 409 471 34,100 1,854 Climbing Albuquerque Center
Sun 08:37:31 PM 36.2442 -107.2864 337° Northwest 404 465 36,600 1,512 Climbing Albuquerque Center
Sun 08:38:32 PM 36.3383 -107.3336 338° Northwest 388 447 37,200 585 Climbing Albuquerque Center
Sun 08:39:34 PM 36.4517 -107.3922 337° Northwest 389 448 37,800 466 Climbing Albuquerque Center
Sun 08:40:15 PM 36.5181 -107.4264 338° Northwest 399 459 38,000 117 Climbing Denver Center
Sun 08:41:17 PM 36.6181 -107.4786 337° Northwest 404 465 38,000  Level Denver Center
Sun 08:42:18 PM 36.7358 -107.5397 337° Northwest 408 470 38,000  Level Denver Center
Sun 08:43:20 PM 36.8353 -107.5917 337° Northwest 408 470 38,000  Level Denver Center
Sun 08:44:22 PM 36.9525 -107.6528 337° Northwest 409 471 38,000  Level Denver Center
Sun 08:45:23 PM 37.0506 -107.7044 337° Northwest 404 465 38,000  Level Denver Center
Sun 08:46:25 PM 37.1458 -107.7553 337° Northwest 391 450 38,000  Level Denver Center
Sun 08:47:27 PM 37.2550 -107.8128 337° Northwest 384 442 38,000  Level Denver Center
Sun 08:48:29 PM 37.3478 -107.8619 337° Northwest 381 438 38,000  Level Denver Center
Sun 08:49:30 PM 37.4586 -107.9044 343° North 377 434 38,000  Level Denver Center
Sun 08:50:32 PM 37.5611 -107.9253 351° North 387 445 38,000  Level Denver Center
Sun 08:51:46 PM 37.6811 -107.9550 349° North 393 452 38,000  Level Denver Center
Sun 08:52:48 PM 37.8022 -107.9783 351° North 393 452 38,000  Level Denver Center
Sun 08:53:50 PM 37.9242 -108.0042 351° North 396 456 38,000  Level Denver Center
Sun 08:54:52 PM 38.0058 -108.0817 323° Northwest 398 458 38,000  Level Denver Center
Sun 08:55:53 PM 38.0878 -108.1778 317° Northwest 383 441 38,000  Level Denver Center
Sun 08:56:55 PM 38.1753 -108.2797 318° Northwest 383 441 38,000  Level Denver Center
Sun 08:57:57 PM 38.2497 -108.3672 317° Northwest 383 441 38,000 290 Level Denver Center
Sun 08:58:59 PM 38.3247 -108.4575 317° Northwest 383 441 38,600 488 Climbing Denver Center
Sun 09:00:00 PM 38.4142 -108.5636 317° Northwest 390 449 39,000 195 Climbing Denver Center
Sun 09:01:02 PM 38.4908 -108.6556 317° Northwest 392 451 39,000  Level Denver Center
Sun 09:02:04 PM 38.5800 -108.7633 317° Northwest 394 453 39,000  Level Denver Center
Sun 09:03:06 PM 38.6564 -108.8561 317° Northwest 394 453 39,000  Level Denver Center
Sun 09:04:19 PM 38.7489 -108.9672 317° Northwest 405 466 39,000  Level Denver Center
Sun 09:05:22 PM 38.8411 -109.0803 316° Northwest 406 467 39,000  Level Denver Center
Sun 09:06:23 PM 38.9325 -109.1911 317° Northwest 406 467 39,000  Level Denver Center
Sun 09:07:25 PM 39.0081 -109.2844 316° Northwest 394 453 39,000  Level Denver Center
Sun 09:08:27 PM 39.0828 -109.3781 316° Northwest 394 453 39,000  Level Denver Center
Sun 09:09:34 PM 39.1714 -109.4872 316° Northwest 392 451 39,000  Level Salt Lake Center
Sun 09:10:35 PM 39.2589 -109.5944 317° Northwest 389 448 39,000  Level Salt Lake Center
Sun 09:11:36 PM 39.3314 -109.6847 316° Northwest 382 440 39,000  Level Salt Lake Center
Sun 09:12:34 PM 39.4042 -109.7753 316° Northwest 380 437 39,000  Level Denver Center
Sun 09:13:36 PM 39.4892 -109.8828 316° Northwest 379 436 39,000  Level Denver Center
Sun 09:14:41 PM 39.5617 -109.9742 316° Northwest 380 437 39,000  Level Salt Lake Center
Sun 09:15:42 PM 39.6469 -110.0800 316° Northwest 380 437 39,000  Level Salt Lake Center
Sun 09:16:43 PM 39.7206 -110.1733 316° Northwest 381 438 39,000  Level Salt Lake Center
Sun 09:17:45 PM 39.7933 -110.2653 316° Northwest 382 440 39,000  Level Salt Lake Center
Sun 09:18:46 PM 39.8781 -110.3739 315° West 383 441 39,000  Level Salt Lake Center
Sun 09:19:47 PM 39.9517 -110.4675 316° Northwest 384 442 39,000  Level Salt Lake Center
Sun 09:20:49 PM 40.0378 -110.5767 316° Northwest 385 443 39,000  Level Salt Lake Center
Sun 09:21:50 PM 40.1094 -110.6697 315° West 382 440 39,000  Level Salt Lake Center
Sun 09:22:51 PM 40.1819 -110.7628 316° Northwest 382 440 39,000  Level Salt Lake Center
Sun 09:23:53 PM 40.2650 -110.8706 315° West 379 436 39,000  Level Salt Lake Center
Sun 09:24:54 PM 40.3353 -110.9617 315° West 387 445 39,000  Level Salt Lake Center
Sun 09:25:56 PM 40.4122 -111.0608 316° Northwest 389 448 39,000  Level Salt Lake Center
Sun 09:26:57 PM 40.5017 -111.1767 315° West 382 440 39,000  Level Salt Lake Center
Sun 09:27:58 PM 40.5736 -111.2728 315° West 371 427 39,000  Level Salt Lake Center
Sun 09:29:00 PM 40.6469 -111.3689 315° West 371 427 39,000  Level Salt Lake Center
Sun 09:30:01 PM 40.7192 -111.4647 315° West 371 427 39,000  Level Salt Lake Center
Sun 09:31:03 PM 40.7925 -111.5611 315° West 371 427 39,000  Level Salt Lake Center
Sun 09:32:04 PM 40.8653 -111.6581 315° West 371 427 39,000  Level Salt Lake Center
Sun 09:33:05 PM 40.9356 -111.7508 315° West 351 404 39,000  Level Salt Lake Center
Sun 09:34:07 PM 41.0128 -111.8581 314° West 352 405 39,000  Level Salt Lake Center
Sun 09:35:08 PM 41.0808 -111.9464 316° Northwest 367 422 39,000  Level Salt Lake Center
Sun 09:36:10 PM 41.1511 -112.0428 314° West 366 421 39,000  Level Salt Lake Center
Sun 09:37:11 PM 41.2194 -112.1342 315° West 354 407 39,000 -341 Level Salt Lake Center
Sun 09:38:13 PM 41.3022 -112.2058 327° Northwest 354 407 38,300 -488 Descending Salt Lake Center
Sun 09:39:14 PM 41.3850 -112.2678 331° Northwest 344 396 38,000 -148 Descending Salt Lake Center
Sun 09:40:15 PM 41.4794 -112.3417 330° Northwest 330 380 38,000  Level Salt Lake Center
Sun 09:41:17 PM 41.5583 -112.3972 332° Northwest 324 373 38,000  Level Salt Lake Center
Sun 09:42:18 PM 41.6378 -112.4517 333° Northwest 322 371 38,000  Level Salt Lake Center
Sun 09:43:20 PM 41.7183 -112.5083 332° Northwest 325 374 38,000  Level Salt Lake Center
Sun 09:44:21 PM 41.7972 -112.5617 333° Northwest 323 372 38,000 49 Level Salt Lake Center
Sun 09:45:23 PM 41.8681 -112.6306 324° Northwest 322 371 38,100  Climbing Salt Lake Center
Sun 09:46:24 PM 41.9258 -112.7222 310° West 320 368 38,000 -49 Descending Salt Lake Center
Sun 09:47:26 PM 41.9867 -112.8106 313° West 321 369 38,000  Level Salt Lake Center
Sun 09:48:27 PM 42.0567 -112.9169 312° West 321 369 38,000  Level Salt Lake Center
Sun 09:49:29 PM 42.1181 -113.0075 312° West 323 372 38,000  Level Salt Lake Center
Sun 09:50:30 PM 42.1789 -113.1008 311° West 329 379 38,000  Level Salt Lake Center
Sun 09:51:32 PM 42.2403 -113.1894 313° West 328 377 38,000  Level Salt Lake Center
Sun 09:52:33 PM 42.3000 -113.2800 312° West 327 376 38,000  Level Salt Lake Center
Sun 09:53:35 PM 42.3589 -113.3681 312° West 321 369 38,000  Level Salt Lake Center
Sun 09:54:37 PM 42.4192 -113.4561 313° West 319 367 38,000  Level Salt Lake Center
Sun 09:55:38 PM 42.4789 -113.5483 311° West 321 369 38,000  Level Salt Lake Center
Sun 09:56:40 PM 42.5494 -113.6544 312° West 319 367 38,000  Level Salt Lake Center
Sun 09:57:41 PM 42.6075 -113.7442 311° West 318 366 38,000  Level Salt Lake Center
Sun 09:58:43 PM 42.6653 -113.8353 311° West 318 366 38,000  Level Salt Lake Center
Sun 09:59:45 PM 42.7233 -113.9286 310° West 323 372 38,000  Level Salt Lake Center
Sun 10:00:46 PM 42.7819 -114.0217 311° West 323 372 38,000  Level Salt Lake Center
Sun 10:01:48 PM 42.8419 -114.1169 311° West 331 381 38,000  Level Salt Lake Center
Sun 10:02:50 PM 42.9028 -114.2089 312° West 327 376 38,000  Level Salt Lake Center
Sun 10:03:51 PM 42.9731 -114.3144 312° West 344 396 38,000  Level Salt Lake Center
Sun 10:04:53 PM 43.0333 -114.4106 311° West 334 384 38,000  Level Salt Lake Center
Sun 10:05:55 PM 43.0936 -114.5056 311° West 332 382 38,000  Level Salt Lake Center
Sun 10:06:56 PM 43.1658 -114.6189 311° West 331 381 38,000  Level Salt Lake Center
Sun 10:07:58 PM 43.2275 -114.7178 311° West 337 388 38,000  Level Salt Lake Center
Sun 10:09:00 PM 43.2903 -114.8150 312° West 341 392 38,000  Level Salt Lake Center
Sun 10:10:01 PM 43.3519 -114.9161 310° West 344 396 38,000  Level Salt Lake Center
Sun 10:11:03 PM 43.4139 -115.0161 310° West 345 397 38,000  Level Salt Lake Center
Sun 10:12:05 PM 43.4772 -115.1156 311° West 344 396 38,000  Level Salt Lake Center
Sun 10:13:07 PM 43.5392 -115.2150 311° West 344 396 38,000  Level Salt Lake Center
Sun 10:14:08 PM 43.6000 -115.3147 310° West 343 395 38,000  Level Salt Lake Center
Sun 10:15:10 PM 43.6731 -115.4342 310° West 339 390 38,000  Level Salt Lake Center
Sun 10:16:12 PM 43.7353 -115.5342 311° West 341 392 38,000  Level Salt Lake Center
Sun 10:17:13 PM 43.7953 -115.6342 310° West 340 391 38,000  Level Salt Lake Center
Sun 10:18:15 PM 43.8564 -115.7336 310° West 340 391 38,000  Level Salt Lake Center
Sun 10:19:17 PM 43.9169 -115.8350 310° West 340 391 38,000  Level Salt Lake Center
Sun 10:20:19 PM 43.9781 -115.9350 310° West 340 391 38,000  Level Salt Lake Center
Sun 10:21:20 PM 44.0394 -116.0367 310° West 341 392 38,000  Level Salt Lake Center
Sun 10:22:22 PM 44.1131 -116.1589 310° West 342 394 38,000  Level Salt Lake Center
Sun 10:23:24 PM 44.1742 -116.2625 309° West 343 395 38,000  Level Salt Lake Center
Sun 10:24:25 PM 44.2353 -116.3653 310° West 343 395 38,000  Level Salt Lake Center
Sun 10:25:27 PM 44.2964 -116.4694 309° West 343 395 38,000  Level Salt Lake Center
Sun 10:26:29 PM 44.3589 -116.5728 310° West 343 395 38,000  Level Salt Lake Center
Sun 10:27:30 PM 44.4200 -116.6769 309° West 343 395 38,000  Level Salt Lake Center
Sun 10:28:32 PM 44.4806 -116.7814 309° West 343 395 38,000  Level Salt Lake Center
Sun 10:29:34 PM 44.5428 -116.8861 310° West 345 397 38,000  Level Salt Lake Center
Sun 10:30:36 PM 44.6042 -116.9911 309° West 346 398 38,000  Level Salt Lake Center
Sun 10:31:06 PM 44.6414 -117.0553 309° West 347 399 38,000  Level Seattle Center
Sun 10:32:07 PM 44.7028 -117.1608 309° West 349 402 38,000  Level Seattle Center
Sun 10:32:39 PM 44.7389 -117.2242 309° West 349 402 38,000  Level Salt Lake Center
Sun 10:33:41 PM 44.7997 -117.3283 309° West 346 398 38,000  Level Salt Lake Center
Sun 10:34:42 PM 44.8594 -117.4325 309° West 344 396 38,000  Level Salt Lake Center
Sun 10:35:45 PM 44.9189 -117.5367 309° West 344 396 38,000  Level Salt Lake Center
Sun 10:36:46 PM 44.9789 -117.6431 309° West 344 396 38,000  Level Salt Lake Center
Sun 10:37:47 PM 45.0394 -117.7478 309° West 344 396 38,000  Level Salt Lake Center
Sun 10:38:49 PM 45.0994 -117.8561 308° West 346 398 38,000  Level Salt Lake Center
Sun 10:39:51 PM 45.1647 -117.9731 308° West 350 403 38,000  Level Salt Lake Center
Sun 10:40:52 PM 45.2253 -118.0800 309° West 350 403 38,000  Level Salt Lake Center
Sun 10:41:54 PM 45.2858 -118.1869 309° West 350 403 38,000  Level Salt Lake Center
Sun 10:42:55 PM 45.3558 -118.3164 308° West 347 399 38,000  Level Salt Lake Center
Sun 10:43:57 PM 45.4158 -118.4231 309° West 347 399 38,000  Level Salt Lake Center
Sun 10:44:59 PM 45.4750 -118.5308 308° West 347 399 38,000  Level Salt Lake Center
Sun 10:46:00 PM 45.5347 -118.6394 308° West 347 399 38,000  Level Salt Lake Center
Sun 10:47:02 PM 45.5925 -118.7458 308° West 346 398 38,000  Level Salt Lake Center
Sun 10:48:03 PM 45.6517 -118.8542 308° West 346 398 38,000  Level Salt Lake Center
Sun 10:49:19 PM 45.7331 -118.9994 309° West 342 394 38,000  Level Seattle Center
Sun 10:50:20 PM 45.7947 -119.1022 311° West 342 394 38,000  Level Seattle Center
Sun 10:51:21 PM 45.8544 -119.2058 310° West 342 394 38,000  Level Seattle Center
Sun 10:52:21 PM 45.9150 -119.3058 311° West 336 387 38,000  Level Seattle Center
Sun 10:53:22 PM 45.9758 -119.4111 310° West 339 390 38,000  Level Seattle Center
Sun 10:54:23 PM 46.0358 -119.5142 310° West 342 394 38,000  Level Seattle Center
Sun 10:55:23 PM 46.0953 -119.6158 310° West 336 387 38,000  Level Seattle Center
Sun 10:56:24 PM 46.1547 -119.7192 310° West 336 387 38,000  Level Seattle Center
Sun 10:57:25 PM 46.2128 -119.8203 310° West 334 384 38,000  Level Seattle Center
Sun 10:58:26 PM 46.2728 -119.9239 310° West 334 384 38,000  Level Seattle Center
Sun 10:59:26 PM 46.3336 -120.0281 310° West 335 386 38,000  Level Seattle Center
Sun 11:00:27 PM 46.3925 -120.1319 309° West 336 387 38,000  Level Seattle Center
Sun 11:01:28 PM 46.4622 -120.2550 309° West 334 384 38,000  Level Seattle Center
Sun 11:02:28 PM 46.5217 -120.3600 309° West 334 384 38,000 -198 Level Seattle Center
Sun 11:03:29 PM 46.5808 -120.4667 309° West 336 387 37,600 -639 Descending Seattle Center
Sun 11:04:30 PM 46.6356 -120.5833 304° West 350 403 36,700 -1,240 Descending Seattle Center
Sun 11:05:30 PM 46.6917 -120.7019 305° West 357 411 35,100 -2,182 Descending Seattle Center
Sun 11:06:31 PM 46.7478 -120.8217 304° West 357 411 32,300 -2,705 Descending Seattle Center
Sun 11:07:32 PM 46.8053 -120.9428 305° West 360 414 29,600 -2,410 Descending Seattle Center
Sun 11:08:33 PM 46.8633 -121.0653 305° West 368 423 27,400 -2,182 Descending Seattle Center
Sun 11:09:33 PM 46.9200 -121.1889 304° West 368 423 25,200 -2,182 Descending Seattle Center
Sun 11:10:34 PM 46.9769 -121.3064 305° West 362 417 23,000 -2,400 Descending Seattle Center
Sun 11:10:58 PM 47.0069 -121.3725 304° West 351 404 21,800 -2,449 Descending Seattle Center
Sun 11:11:23 PM 47.0275 -121.4161 305° West 346 398 21,000 -1,784 Descending Seattle Center
Sun 11:11:35 PM 47.0353 -121.4325 305° West 346 398 20,700 -1,377 Descending Seattle Center
Sun 11:12:24 PM 47.0792 -121.5275 304° West 328 377 19,600 -1,400 Descending Seattle Center
Sun 11:12:35 PM 47.0864 -121.5431 304° West 330 380 19,300 -1,500 Descending Seattle Center
Sun 11:13:24 PM 47.1264 -121.6314 304° West 298 343 18,100 -1,475 Descending Seattle Center
Sun 11:13:36 PM 47.1356 -121.6511 304° West 310 357 17,800 -1,672 Descending Seattle Center
Sun 11:14:25 PM 47.1731 -121.7328 304° West 300 345 16,400 -1,869 Descending Seattle Center
Sun 11:14:37 PM 47.1839 -121.7558 305° West 308 354 15,900 -1,377 Descending Seattle Center
Sun 11:15:26 PM 47.2194 -121.8344 304° West 302 348 15,000 -900 Descending Seattle Center
Sun 11:15:37 PM 47.2297 -121.8567 304° West 301 346 15,000 -689 Level Seattle Center
Sun 11:16:27 PM 47.2675 -121.9417 303° West 290 334 14,300 -984 Descending Seattle Center
Sun 11:16:38 PM 47.2742 -121.9531 311° West 286 329 14,000 -2,066 Descending Seattle Center
Sun 11:17:28 PM 47.3122 -122.0378 304° West 283 326 12,200 -2,164 Descending Seattle Center
Sun 11:17:39 PM 47.3186 -122.0506 306° West 283 326 11,800 -2,100 Descending Seattle Center
Sun 11:18:28 PM 47.3578 -122.1369 304° West 294 338 10,100 -1,770 Descending Seattle Center
Sun 11:18:40 PM 47.3642 -122.1517 303° West 292 336 10,000 -197 Descending Seattle Center
Sun 11:19:29 PM 47.4197 -122.1878 336° Northwest 273 314 9,900 -400 Descending Seattle Center
Sun 11:19:40 PM 47.4358 -122.1872 North 273 314 9,600 -1,574 Descending Seattle Center
Sun 11:20:30 PM 47.4914 -122.1811 North 264 304 8,300 -1,574 Descending Seattle Center
Sun 11:20:41 PM 47.5089 -122.1800 North 266 306 8,000 -1,500 Descending Seattle Center
Sun 11:21:42 PM 47.5831 -122.1739 North 267 307 6,500 -1,405 Descending Seattle Center
Sun 11:22:32 PM 47.6464 -122.1703 North 272 313 5,400 -1,300 Descending Seattle Center
Sun 11:22:42 PM 47.6578 -122.1703 360° North 268 308 5,200 -845 Descending Seattle Center
Sun 11:23:43 PM 47.6964 -122.2267 316° Northwest 241 277 4,400 -836 Descending Seattle Center
Sun 11:24:44 PM 47.6628 -122.2986 235° Southwest 205 236 3,500 -590 Descending Seattle Center
Sun 11:25:45 PM 47.6056 -122.3069 186° South 209 241 3,200 -615 Descending Seattle Center
Sun 11:26:41 PM 47.5589 -122.3078 181° South 175 201 2,300 -872 Descending Seattle Center
Sun 11:27:42 PM 47.5150 -122.3092 181° South 161 185 1,500 -750 Descending Seattle Center
Sun 11:28:49 PM 47.4747 -122.3083 179° South 128 147 700 -528 Descending Seattle Center
Sun 11:29:47 PM 47.4408 -122.3103 182° South 133 153 400 -310 Descending Seattle Center
Sun 11:31:00 PM 47.4333 -122.3000 306° West  Level FlightAware Approximate

Login

Don't have an account? Register now (free) for customized features, flight alerts, and more!